createdAt,value
2019-05-20T06:18:19.897Z,33.95
2019-05-20T06:20:50.244Z,31.00
2019-05-20T06:23:18.595Z,30.63
2019-05-20T06:28:25.293Z,36.28
2019-05-20T06:30:53.694Z,36.60
2019-05-20T06:33:22.041Z,33.10
2019-05-20T06:35:50.447Z,33.70
2019-05-20T06:40:57.083Z,37.38
2019-05-20T06:43:27.408Z,39.30
2019-05-20T06:45:55.791Z,35.47
2019-05-20T06:48:24.153Z,36.10
2019-05-20T06:50:52.546Z,35.28
2019-05-20T06:53:25.015Z,35.97
2019-05-20T06:55:53.387Z,30.30
2019-05-20T06:58:28.174Z,35.27
2019-05-20T07:00:56.542Z,31.10
2019-05-20T07:03:48.389Z,27.07
2019-05-20T07:06:44.681Z,29.40
2019-05-20T07:08:57.283Z,30.80
2019-05-20T07:11:25.670Z,27.90
2019-05-20T07:13:54.081Z,31.57
2019-05-20T07:18:56.733Z,33.97
2019-05-20T07:21:26.055Z,33.53
2019-05-20T07:23:54.416Z,32.67
2019-05-20T07:26:32.611Z,29.17
2019-05-20T07:29:00.972Z,27.13
2019-05-20T07:31:29.365Z,24.90
2019-05-20T07:33:57.731Z,25.73
2019-05-20T07:37:02.040Z,28.40
2019-05-20T07:39:34.381Z,22.43
2019-05-20T07:42:02.739Z,26.83
2019-05-20T07:44:31.096Z,24.43
2019-05-20T07:46:59.525Z,21.77
2019-05-20T07:49:29.781Z,25.77
2019-05-20T07:51:58.229Z,21.40
2019-05-20T07:54:29.670Z,29.77
2019-05-20T07:56:58.033Z,23.80
2019-05-20T07:59:47.340Z,25.17
2019-05-20T08:02:25.721Z,21.87
2019-05-20T08:04:54.135Z,20.90
2019-05-20T08:07:30.054Z,23.00
2019-05-20T08:09:55.915Z,19.43
2019-05-20T08:12:27.609Z,21.47
2019-05-20T08:15:15.430Z,20.67
2019-05-20T08:17:43.796Z,19.20
2019-05-20T08:20:13.166Z,21.90
2019-05-20T08:28:09.433Z,22.33
2019-05-20T08:30:37.807Z,20.23
2019-05-20T08:33:08.031Z,21.20
2019-05-20T08:35:44.062Z,22.23
2019-05-20T08:38:14.448Z,22.17
2019-05-20T08:40:48.115Z,20.60
2019-05-20T08:43:19.544Z,18.60
2019-05-20T08:48:49.612Z,22.55
2019-05-20T08:51:18.035Z,20.73
2019-05-20T08:54:00.414Z,24.33
2019-05-20T08:59:06.067Z,23.00
2019-05-20T09:01:36.321Z,19.57
2019-05-20T09:04:05.597Z,20.57
2019-05-20T09:06:47.918Z,23.08
2019-05-20T09:09:17.206Z,21.13
2019-05-20T09:11:59.189Z,20.93
2019-05-20T09:14:27.697Z,20.20
2019-05-20T09:19:47.383Z,23.23
2019-05-20T09:22:15.297Z,22.07
2019-05-20T09:24:43.889Z,20.77
2019-05-20T09:27:12.087Z,25.05
2019-05-20T09:29:40.473Z,25.53
2019-05-20T09:32:08.850Z,24.33
2019-05-20T09:34:38.114Z,22.17
2019-05-20T09:37:06.462Z,23.23
2019-05-20T09:39:36.739Z,27.55
2019-05-20T09:42:05.130Z,25.47
2019-05-20T09:47:07.774Z,27.50
2019-05-20T09:49:42.173Z,24.20
2019-05-20T09:52:10.545Z,23.53
2019-05-20T09:54:39.841Z,21.70
2019-05-20T09:57:08.204Z,21.10
2019-05-20T09:59:55.462Z,21.97
2019-05-20T10:02:32.825Z,21.47
2019-05-20T10:04:52.202Z,25.20
2019-05-20T10:07:20.562Z,20.80
2019-05-20T10:10:05.521Z,25.55
2019-05-20T10:12:46.003Z,23.13
2019-05-20T10:15:05.770Z,19.90
2019-05-20T10:17:37.632Z,20.07
2019-05-20T10:20:06.016Z,19.10
2019-05-20T10:25:11.620Z,18.00
2019-05-20T10:27:39.993Z,18.42
2019-05-20T10:30:08.385Z,18.35
2019-05-20T10:32:51.890Z,17.50
2019-05-20T10:35:20.251Z,15.13
2019-05-20T10:37:49.513Z,15.87
2019-05-20T10:40:17.862Z,15.00
2019-05-20T10:43:05.139Z,13.93
2019-05-20T10:48:08.891Z,16.30
2019-05-20T10:50:36.096Z,17.83
2019-05-20T10:53:04.460Z,18.60
2019-05-20T10:55:32.840Z,17.73
2019-05-20T10:58:02.085Z,17.40
2019-05-20T11:00:31.368Z,20.23
2019-05-20T11:05:38.976Z,25.58
2019-05-20T11:08:26.014Z,25.67
2019-05-20T11:10:55.302Z,24.53
2019-05-20T11:13:27.094Z,25.27
2019-05-20T11:15:55.470Z,26.77
2019-05-20T11:18:23.833Z,24.57
2019-05-20T11:23:31.886Z,27.80
2019-05-20T11:26:06.507Z,22.37
2019-05-20T11:28:34.816Z,25.47
2019-05-20T11:31:10.862Z,23.47
2019-05-20T11:33:40.162Z,21.93
2019-05-20T11:36:13.602Z,26.00
2019-05-20T11:38:42.077Z,21.30
2019-05-20T11:41:11.331Z,22.70
2019-05-20T11:46:16.007Z,25.53
2019-05-20T11:51:21.715Z,25.73
2019-05-20T11:53:50.070Z,24.60
2019-05-20T11:56:19.359Z,20.80
2019-05-20T11:58:47.705Z,23.40
2019-05-20T12:01:16.106Z,22.27
2019-05-20T12:03:49.747Z,21.03
2019-05-20T12:06:18.693Z,21.37
2019-05-20T12:08:47.550Z,20.20
2019-05-20T12:11:15.922Z,21.53
2019-05-20T12:13:59.295Z,22.70
2019-05-20T12:16:27.655Z,22.83
2019-05-20T12:18:56.038Z,24.10
2019-05-20T12:21:24.393Z,22.20
2019-05-20T12:23:52.746Z,20.60
2019-05-20T12:26:22.757Z,21.00
2019-05-20T12:28:51.403Z,18.93
2019-05-20T12:31:19.806Z,18.60
2019-05-20T12:33:48.140Z,19.57
2019-05-20T12:36:16.527Z,17.53
2019-05-20T12:38:46.786Z,17.37
2019-05-20T12:41:15.176Z,20.43
2019-05-20T12:43:44.932Z,20.50
2019-05-20T12:48:54.289Z,20.90
2019-05-20T12:51:22.654Z,19.60
2019-05-20T12:53:52.948Z,17.58
2019-05-20T12:56:26.905Z,15.63
2019-05-20T13:04:18.141Z,14.13
2019-05-20T13:06:46.529Z,11.53
2019-05-20T13:09:18.447Z,11.53
2019-05-20T13:11:47.757Z,9.30
2019-05-20T13:14:17.034Z,9.50
2019-05-20T13:16:45.808Z,7.23
2019-05-20T13:19:19.315Z,10.63
2019-05-20T13:21:47.678Z,7.73
2019-05-20T13:24:17.942Z,7.37
2019-05-20T13:26:46.345Z,6.00
2019-05-20T13:29:16.622Z,6.47
2019-05-20T13:31:45.021Z,6.30
2019-05-20T13:34:18.805Z,7.20
2019-05-20T13:36:46.888Z,9.17
2019-05-20T13:39:34.584Z,11.00
2019-05-20T13:42:07.287Z,15.33
2019-05-20T21:58:58.593Z,9.60
2019-05-20T22:01:27.095Z,8.60
2019-05-20T22:04:00.037Z,8.60
2019-05-20T22:06:28.410Z,9.27
2019-05-20T22:08:57.717Z,10.40
2019-05-20T22:11:26.090Z,13.20
2019-05-20T22:13:54.463Z,15.83
2019-05-20T22:16:22.836Z,19.03
2019-05-20T22:18:51.180Z,18.13
2019-05-20T22:21:20.460Z,23.48
2019-05-20T22:23:51.646Z,25.80
2019-05-20T22:26:20.952Z,19.63
2019-05-20T22:28:50.221Z,27.23
2019-05-20T22:33:53.718Z,35.22
2019-05-20T22:36:23.084Z,37.90
2019-05-20T22:38:51.450Z,34.90
2019-05-20T22:41:20.768Z,36.73
2019-05-20T22:43:49.145Z,34.00
2019-05-20T22:46:17.512Z,31.20
2019-05-20T22:48:45.948Z,33.63
2019-05-20T22:51:17.665Z,27.10
2019-05-20T22:53:49.215Z,32.23
2019-05-20T22:56:17.641Z,24.83
2019-05-20T22:58:46.066Z,24.67
2019-05-20T23:01:15.299Z,25.07
2019-05-20T23:03:56.335Z,27.20
2019-05-20T23:06:18.214Z,22.40
2019-05-20T23:08:48.512Z,23.57
2019-05-20T23:11:26.893Z,18.23
2019-05-20T23:13:55.257Z,18.67
2019-05-20T23:16:23.612Z,19.70
2019-05-20T23:18:51.973Z,22.05
2019-05-20T23:23:54.578Z,21.67
2019-05-20T23:26:22.983Z,18.13
2019-05-20T23:28:51.388Z,17.30
2019-05-20T23:31:20.323Z,18.20
2019-05-20T23:33:48.681Z,18.20
2019-05-20T23:36:19.032Z,18.13
2019-05-20T23:38:47.401Z,20.80
2019-05-20T23:41:15.757Z,20.90
2019-05-20T23:43:44.155Z,16.17
2019-05-20T23:46:12.724Z,20.30
2019-05-20T23:48:41.994Z,20.50
2019-05-20T23:51:12.329Z,15.40
2019-05-20T23:53:42.667Z,15.33
2019-05-20T23:56:11.039Z,14.30
2019-05-20T23:58:39.431Z,14.27
